Time;durP1;ratioP1;P1;durP2;ratioP2;P2;SDS_P1;SDS_P2;PMS_P1;PMS_P2;Temp;Humidity;BMP_temperature;BMP_pressure;BME280_temperature;BME280_humidity;BME280_pressure;Samples;Min_cycle;Max_cycle;Signal;HPM_P1;HPM_P2
2023/04/07 00:00:38;;;;;;;36.90;22.90;;;;;;;7.65;100.00;101381.66;4917995;29;20411;-76
2023/04/07 00:03:06;;;;;;;35.33;21.58;;;;;;;7.63;100.00;101380.78;4933106;29;20503;-75
2023/04/07 00:05:32;;;;;;;37.45;23.35;;;;;;;7.58;100.00;101380.72;4902744;29;20043;-77
2023/04/07 00:07:57;;;;;;;35.50;22.15;;;;;;;7.57;100.00;101375.50;4916752;29;20139;-72
2023/04/07 00:10:24;;;;;;;34.47;22.70;;;;;;;7.53;100.00;101377.22;4924639;29;20497;-72
2023/04/07 00:12:50;;;;;;;35.67;21.83;;;;;;;7.54;100.00;101378.09;4918026;29;20044;-72
2023/04/07 00:15:15;;;;;;;32.58;21.75;;;;;;;7.53;100.00;101382.44;4912762;29;20086;-72
2023/04/07 00:17:41;;;;;;;36.80;21.63;;;;;;;7.52;100.00;101375.47;4927393;29;20111;-72
2023/04/07 00:20:07;;;;;;;34.38;21.95;;;;;;;7.53;100.00;101391.97;4886917;29;20058;-72
2023/04/07 00:22:32;;;;;;;34.88;22.08;;;;;;;7.52;100.00;101387.63;4902812;29;20078;-72
2023/04/07 00:24:58;;;;;;;37.22;21.60;;;;;;;7.50;100.00;101398.06;4920828;29;20070;-72
2023/04/07 00:27:23;;;;;;;32.95;20.33;;;;;;;7.50;100.00;101390.22;4893242;29;20548;-72
2023/04/07 00:29:49;;;;;;;35.35;20.80;;;;;;;7.48;100.00;101384.09;4918352;29;20050;-72
2023/04/07 00:32:14;;;;;;;35.20;20.05;;;;;;;7.47;100.00;101385.00;4916630;29;20471;-72
2023/04/07 00:34:40;;;;;;;35.50;19.55;;;;;;;7.45;100.00;101384.09;4900188;29;20043;-71
2023/04/07 00:37:05;;;;;;;30.52;20.08;;;;;;;7.42;100.00;101387.53;4901466;29;20035;-73
2023/04/07 00:39:32;;;;;;;30.38;19.45;;;;;;;7.40;100.00;101385.78;4897524;29;20046;-77
2023/04/07 00:41:57;;;;;;;28.52;18.20;;;;;;;7.39;100.00;101391.84;4934698;29;20052;-73
2023/04/07 00:44:23;;;;;;;27.75;17.25;;;;;;;7.36;100.00;101392.69;4952952;29;20039;-72
2023/04/07 00:46:49;;;;;;;28.33;16.75;;;;;;;7.34;100.00;101391.81;4919775;29;20126;-73
2023/04/07 00:49:16;;;;;;;23.52;14.95;;;;;;;7.32;100.00;101387.44;4936896;29;20130;-72
2023/04/07 00:51:42;;;;;;;21.05;12.15;;;;;;;7.27;100.00;101387.41;4933039;29;21961;-72
2023/04/07 00:54:09;;;;;;;22.60;12.80;;;;;;;7.25;100.00;101386.50;4933954;29;20179;-72
2023/04/07 00:56:35;;;;;;;23.10;12.18;;;;;;;7.22;100.00;101384.72;4920398;29;20064;-77
2023/04/07 00:59:03;;;;;;;18.90;12.18;;;;;;;7.19;100.00;101384.69;4920687;29;20653;-77
2023/04/07 01:01:43;;;;;;;21.25;12.98;;;;;;;7.18;100.00;101385.53;4949976;29;20464;-72
2023/04/07 01:04:20;;;;;;;18.60;12.03;;;;;;;7.14;100.00;101381.19;4950894;29;20031;-77
2023/04/07 01:06:50;;;;;;;19.45;12.75;;;;;;;7.13;100.00;101391.59;4924371;29;20278;-72
2023/04/07 01:09:22;;;;;;;20.10;12.35;;;;;;;7.11;100.00;101381.13;4950887;29;20042;-72
2023/04/07 01:12:08;;;;;;;20.60;13.38;;;;;;;7.10;100.00;101382.00;4945010;29;20388;-72
2023/04/07 01:14:41;;;;;;;21.08;13.48;;;;;;;7.07;100.00;101382.81;4936683;29;20449;-77
2023/04/07 01:17:09;;;;;;;23.05;13.40;;;;;;;7.06;100.00;101391.50;4932035;29;20047;-77
2023/04/07 01:19:58;;;;;;;23.23;14.40;;;;;;;7.07;100.00;101389.78;4933918;29;20032;-73
2023/04/07 01:22:39;;;;;;;25.42;15.43;;;;;;;7.03;100.00;101378.44;4945993;29;20114;-72
2023/04/07 01:25:31;;;;;;;27.45;15.18;;;;;;;7.03;100.00;101386.25;4952808;28;20097;-72
2023/04/07 01:28:03;;;;;;;27.20;15.77;;;;;;;6.99;100.00;101383.59;4936313;29;20373;-72
2023/04/07 01:30:32;;;;;;;25.83;14.73;;;;;;;6.97;100.00;101383.59;4939032;29;20135;-72
2023/04/07 01:32:59;;;;;;;22.98;15.60;;;;;;;6.94;100.00;101381.81;4936815;29;20028;-72
2023/04/07 01:35:31;;;;;;;24.25;13.90;;;;;;;6.93;100.00;101387.88;4921730;29;20123;-72
2023/04/07 01:37:59;;;;;;;20.50;13.40;;;;;;;6.93;100.00;101390.47;4955099;29;20038;-72
2023/04/07 01:40:25;;;;;;;21.65;13.73;;;;;;;6.94;100.00;101400.06;4953215;29;20111;-72
2023/04/07 01:42:51;;;;;;;18.35;11.55;;;;;;;6.92;100.00;101401.78;4939973;29;20052;-72
2023/04/07 01:45:19;;;;;;;24.17;11.65;;;;;;;6.88;100.00;101399.97;4888028;29;20174;-72
2023/04/07 01:47:45;;;;;;;20.65;11.40;;;;;;;6.88;100.00;101407.78;4941430;28;20047;-72
2023/04/07 01:50:11;;;;;;;21.88;11.88;;;;;;;6.85;100.00;101407.75;4919323;29;20048;-72
2023/04/07 01:52:38;;;;;;;18.70;9.48;;;;;;;6.84;100.00;101412.94;4936294;29;20498;-72
2023/04/07 01:55:05;;;;;;;19.38;9.48;;;;;;;6.81;100.00;101405.06;4949855;28;20036;-72
2023/04/07 01:57:31;;;;;;;19.70;9.60;;;;;;;6.81;100.00;101412.88;4935735;29;20095;-77
2023/04/07 01:59:56;;;;;;;15.73;9.38;;;;;;;6.82;100.00;101407.69;4926537;29;20039;-77
2023/04/07 02:02:22;;;;;;;16.88;9.70;;;;;;;6.83;100.00;101411.19;4935057;29;20044;-76
2023/04/07 02:04:55;;;;;;;18.38;9.98;;;;;;;6.83;100.00;101417.28;4923031;29;20032;-77
2023/04/07 02:07:28;;;;;;;17.30;10.43;;;;;;;6.83;100.00;101413.81;4951374;28;20070;-76
2023/04/07 02:09:59;;;;;;;18.38;10.13;;;;;;;6.80;100.00;101413.78;4920907;29;20124;-77
2023/04/07 02:12:27;;;;;;;17.60;10.27;;;;;;;6.79;100.00;101423.28;4914609;29;20036;-76
2023/04/07 02:14:55;;;;;;;18.65;10.65;;;;;;;6.78;100.00;101418.97;4917433;29;20051;-77
2023/04/07 02:17:26;;;;;;;17.42;8.20;;;;;;;6.78;100.00;101421.56;4928188;29;20095;-76
2023/04/07 02:19:53;;;;;;;16.45;8.88;;;;;;;6.77;100.00;101425.00;4925995;29;20147;-77
2023/04/07 02:22:18;;;;;;;13.82;8.05;;;;;;;6.71;100.00;101420.59;4938804;28;20401;-76
2023/04/07 02:24:44;;;;;;;14.25;8.18;;;;;;;6.70;100.00;101423.19;4894116;29;20048;-77
2023/04/07 02:27:09;;;;;;;17.05;8.43;;;;;;;6.69;100.00;101426.63;4939328;29;20401;-77
2023/04/07 02:29:35;;;;;;;14.75;7.93;;;;;;;6.69;100.00;101424.88;4901600;29;20051;-77
2023/04/07 02:32:00;;;;;;;15.75;8.13;;;;;;;6.69;100.00;101429.25;4916898;29;20048;-77
2023/04/07 02:34:26;;;;;;;14.45;8.57;;;;;;;6.68;100.00;101424.88;4912934;29;20107;-72
2023/04/07 02:36:51;;;;;;;14.75;7.80;;;;;;;6.64;100.00;101423.97;4885719;29;20048;-72
2023/04/07 02:39:17;;;;;;;15.88;8.13;;;;;;;6.65;100.00;101417.03;4933909;29;20480;-72
2023/04/07 02:41:42;;;;;;;16.88;8.13;;;;;;;6.62;100.00;101414.38;4921810;29;20131;-72
2023/04/07 02:44:07;;;;;;;12.95;7.93;;;;;;;6.60;100.00;101411.75;4931960;29;20416;-72
2023/04/07 02:46:34;;;;;;;16.33;7.90;;;;;;;6.62;100.00;101414.38;4900221;29;20051;-72
2023/04/07 02:49:00;;;;;;;18.10;8.13;;;;;;;6.60;100.00;101416.97;4900415;29;20040;-72
2023/04/07 02:51:26;;;;;;;14.27;7.82;;;;;;;6.58;100.00;101413.47;4885186;29;20126;-73
2023/04/07 02:53:52;;;;;;;18.83;8.60;;;;;;;6.59;100.00;101415.22;4900777;29;20040;-72
2023/04/07 02:56:17;;;;;;;13.88;8.68;;;;;;;6.61;100.00;101418.72;4884343;29;20055;-72
2023/04/07 02:58:43;;;;;;;14.95;8.30;;;;;;;6.61;100.00;101415.22;4900550;29;20044;-72
2023/04/07 03:01:08;;;;;;;16.25;8.77;;;;;;;6.61;100.00;101415.22;4920363;29;20095;-72
2023/04/07 03:03:33;;;;;;;17.90;8.65;;;;;;;6.62;100.00;101412.66;4900545;29;20404;-72
2023/04/07 03:05:59;;;;;;;15.93;8.82;;;;;;;6.64;100.00;101417.88;4916480;29;20511;-72
2023/04/07 03:08:24;;;;;;;15.82;8.15;;;;;;;6.66;100.00;101416.19;4884506;29;20044;-72
2023/04/07 03:10:50;;;;;;;12.85;8.13;;;;;;;6.68;100.00;101417.97;4916108;29;20411;-72
2023/04/07 03:13:17;;;;;;;15.52;8.02;;;;;;;6.67;100.00;101412.72;4916832;29;20035;-72
2023/04/07 03:15:43;;;;;;;14.18;7.78;;;;;;;6.68;100.00;101419.66;4907579;29;20143;-72
2023/04/07 03:18:10;;;;;;;14.40;8.23;;;;;;;6.69;100.00;101424.88;4926522;29;20111;-72
2023/04/07 03:20:36;;;;;;;15.93;8.07;;;;;;;6.69;100.00;101422.28;4897384;29;20041;-72
2023/04/07 03:23:03;;;;;;;14.30;8.13;;;;;;;6.71;100.00;101422.31;4899973;29;20123;-72
2023/04/07 03:25:28;;;;;;;16.55;8.50;;;;;;;6.72;100.00;101417.16;4903229;29;20495;-72
2023/04/07 03:27:54;;;;;;;19.33;8.63;;;;;;;6.74;100.00;101419.78;4928924;29;20045;-77
2023/04/07 03:30:19;;;;;;;14.90;8.15;;;;;;;6.76;100.00;101428.47;4920168;29;20036;-76
2023/04/07 03:32:45;;;;;;;13.88;8.20;;;;;;;6.75;100.00;101426.72;4931464;29;20067;-76
2023/04/07 03:35:10;;;;;;;14.00;7.60;;;;;;;6.74;100.00;101424.97;4931622;29;20048;-76
2023/04/07 03:37:36;;;;;;;17.95;7.95;;;;;;;6.73;100.00;101418.00;4900201;29;20051;-76
2023/04/07 03:40:01;;;;;;;18.02;8.57;;;;;;;6.76;100.00;101423.25;4942555;29;20039;-76
2023/04/07 03:42:27;;;;;;;16.35;8.52;;;;;;;6.75;100.00;101418.91;4889003;29;20043;-76
2023/04/07 03:44:52;;;;;;;19.02;8.30;;;;;;;6.72;100.00;101418.84;4915920;29;20054;-77
2023/04/07 03:47:18;;;;;;;15.10;8.55;;;;;;;6.69;100.00;101422.28;4882394;29;20440;-76
2023/04/07 03:49:43;;;;;;;16.42;8.77;;;;;;;6.68;100.00;101427.47;4915795;29;20142;-76
2023/04/07 03:52:09;;;;;;;18.83;8.43;;;;;;;6.69;100.00;101430.09;4899543;29;20032;-76
2023/04/07 03:54:35;;;;;;;16.00;7.38;;;;;;;6.69;100.00;101422.28;4914901;29;20044;-77
2023/04/07 03:57:01;;;;;;;17.75;9.52;;;;;;;6.69;100.00;101426.63;4883896;29;20044;-77
2023/04/07 03:59:27;;;;;;;18.13;7.97;;;;;;;6.70;100.00;101436.22;4915587;29;20178;-76
2023/04/07 04:01:52;;;;;;;16.15;8.43;;;;;;;6.71;100.00;101431.00;4898434;29;20546;-76
2023/04/07 04:04:18;;;;;;;15.73;8.38;;;;;;;6.73;100.00;101431.91;4884307;29;20567;-77
2023/04/07 04:06:43;;;;;;;17.77;8.43;;;;;;;6.71;100.00;101436.22;4877015;29;20127;-77
2023/04/07 04:09:09;;;;;;;14.48;7.95;;;;;;;6.70;100.00;101437.06;4889421;29;20062;-77
2023/04/07 04:11:35;;;;;;;15.88;7.93;;;;;;;6.68;100.00;101430.97;4899209;29;20182;-72
2023/04/07 04:14:01;;;;;;;18.42;8.38;;;;;;;6.69;100.00;101442.25;4876501;29;20047;-72
2023/04/07 04:16:26;;;;;;;18.35;8.48;;;;;;;6.68;100.00;101425.78;4915786;29;20043;-72
2023/04/07 04:18:51;;;;;;;19.55;8.05;;;;;;;6.66;100.00;101432.66;4898365;29;20089;-72
2023/04/07 04:21:18;;;;;;;18.67;7.90;;;;;;;6.68;100.00;101432.69;4899199;29;20135;-72
2023/04/07 04:23:43;;;;;;;19.27;8.30;;;;;;;6.68;100.00;101435.28;4882148;29;20135;-72
2023/04/07 04:26:09;;;;;;;22.90;8.43;;;;;;;6.64;100.00;101428.28;4914552;29;20040;-72
2023/04/07 04:28:34;;;;;;;17.98;7.55;;;;;;;6.67;99.86;101428.34;4898916;29;20047;-72
2023/04/07 04:31:00;;;;;;;18.85;8.25;;;;;;;6.66;100.00;101437.00;4919807;29;20086;-72
2023/04/07 04:33:25;;;;;;;20.63;7.53;;;;;;;6.64;100.00;101429.19;4914739;29;20044;-72
2023/04/07 04:35:51;;;;;;;15.50;7.88;;;;;;;6.65;100.00;101435.25;4913466;29;20073;-72
2023/04/07 04:38:16;;;;;;;21.48;8.63;;;;;;;6.63;99.67;101434.38;4911950;29;20050;-72
2023/04/07 04:40:43;;;;;;;21.75;8.07;;;;;;;6.64;100.00;101438.69;4913557;29;20040;-72
2023/04/07 04:43:09;;;;;;;21.77;7.80;;;;;;;6.64;100.00;101443.91;4889682;29;20048;-72
2023/04/07 04:45:36;;;;;;;19.40;7.85;;;;;;;6.61;99.73;101447.38;4914779;29;20471;-72
2023/04/07 04:48:02;;;;;;;19.50;8.00;;;;;;;6.61;100.00;101449.97;4938927;29;20043;-72
2023/04/07 04:50:35;;;;;;;19.85;8.10;;;;;;;6.60;99.96;101440.41;4901450;29;20043;-72
2023/04/07 04:53:01;;;;;;;20.80;8.32;;;;;;;6.61;100.00;101454.28;4933916;29;20031;-72
2023/04/07 04:55:26;;;;;;;16.42;8.32;;;;;;;6.59;100.00;101456.88;4933685;29;20034;-72
2023/04/07 04:57:52;;;;;;;18.25;8.88;;;;;;;6.57;100.00;101456.00;4898766;29;20052;-77
2023/04/07 05:00:17;;;;;;;19.60;10.07;;;;;;;6.57;100.00;101463.81;4919464;29;20047;-76
2023/04/07 05:02:43;;;;;;;26.08;10.80;;;;;;;6.55;100.00;101457.69;4921899;29;20127;-77
2023/04/07 05:05:08;;;;;;;32.53;15.85;;;;;;;6.53;100.00;101462.00;4920722;29;20433;-77
2023/04/07 05:07:34;;;;;;;31.17;14.77;;;;;;;6.53;100.00;101472.41;4910205;29;20064;-72
2023/04/07 05:10:00;;;;;;;34.03;18.65;;;;;;;6.51;100.00;101469.78;4921679;29;20035;-72
2023/04/07 05:12:26;;;;;;;53.17;32.85;;;;;;;6.51;100.00;101475.00;4920617;29;20482;-72
2023/04/07 05:14:51;;;;;;;31.25;17.08;;;;;;;6.51;100.00;101466.31;4939319;29;20048;-72
2023/04/07 05:17:17;;;;;;;33.95;15.68;;;;;;;6.51;100.00;101475.00;4942104;29;20056;-72
2023/04/07 05:19:42;;;;;;;25.35;12.68;;;;;;;6.49;100.00;101462.81;4889118;29;20126;-72
2023/04/07 05:22:08;;;;;;;29.98;15.35;;;;;;;6.53;100.00;101472.41;4905306;29;20059;-72
2023/04/07 05:24:33;;;;;;;24.05;12.88;;;;;;;6.52;100.00;101475.88;4936408;29;20460;-77
2023/04/07 05:27:00;;;;;;;29.98;17.15;;;;;;;6.54;100.00;101480.25;4938232;29;20082;-77
2023/04/07 05:29:26;;;;;;;43.95;21.83;;;;;;;6.52;100.00;101471.56;4909358;29;20472;-77
2023/04/07 05:31:51;;;;;;;53.22;29.73;;;;;;;6.54;100.00;101480.25;4907441;29;20075;-77
2023/04/07 05:34:16;;;;;;;35.55;18.85;;;;;;;6.55;100.00;101479.41;4935541;29;20417;-77
2023/04/07 05:36:42;;;;;;;62.20;33.42;;;;;;;6.55;100.00;101476.81;4920277;29;20143;-76
2023/04/07 05:39:07;;;;;;;48.03;28.98;;;;;;;6.56;100.00;101480.28;4927291;29;20039;-77
2023/04/07 05:41:33;;;;;;;40.03;26.40;;;;;;;6.56;100.00;101482.88;4915736;29;20039;-77
2023/04/07 05:43:58;;;;;;;33.92;17.50;;;;;;;6.58;100.00;101484.66;4929392;29;20487;-77
2023/04/07 05:46:24;;;;;;;58.58;46.08;;;;;;;6.58;100.00;101486.41;4934287;29;20039;-77
2023/04/07 05:48:49;;;;;;;31.45;19.25;;;;;;;6.58;100.00;101482.06;4936885;29;20380;-77
2023/04/07 05:51:17;;;;;;;29.42;15.82;;;;;;;6.61;100.00;101490.75;4905377;29;20042;-76
2023/04/07 05:53:43;;;;;;;29.23;13.93;;;;;;;6.61;100.00;101498.56;4920566;29;20567;-76
2023/04/07 05:56:08;;;;;;;28.45;13.48;;;;;;;6.62;100.00;101492.50;4920275;29;20130;-72
2023/04/07 05:58:34;;;;;;;25.63;12.80;;;;;;;6.62;100.00;101497.72;4903130;29;20050;-72
2023/04/07 06:00:59;;;;;;;28.27;14.27;;;;;;;6.62;100.00;101497.72;4920709;29;20035;-72
2023/04/07 06:03:25;;;;;;;34.10;13.00;;;;;;;6.64;100.00;101496.00;4935880;29;20131;-72
2023/04/07 06:05:50;;;;;;;39.72;16.40;;;;;;;6.63;100.00;101502.09;4923606;29;20380;-72
2023/04/07 06:08:16;;;;;;;32.83;14.23;;;;;;;6.66;100.00;101507.34;4935854;29;20040;-72
2023/04/07 06:10:43;;;;;;;34.20;13.60;;;;;;;6.65;100.00;101505.56;4903783;29;20052;-72
2023/04/07 06:13:08;;;;;;;30.27;13.30;;;;;;;6.70;100.00;101507.41;4903003;29;20127;-72
2023/04/07 06:15:34;;;;;;;32.88;14.35;;;;;;;6.71;100.00;101511.75;4935933;29;20042;-72
2023/04/07 06:17:59;;;;;;;29.80;14.10;;;;;;;6.74;100.00;101513.53;4904247;29;20042;-72
2023/04/07 06:20:26;;;;;;;26.65;14.07;;;;;;;6.75;100.00;101525.69;4936257;29;20044;-76
2023/04/07 06:22:53;;;;;;;30.60;13.23;;;;;;;6.78;100.00;101523.16;4920316;29;20039;-76
2023/04/07 06:25:19;;;;;;;30.35;13.50;;;;;;;6.80;100.00;101518.84;4920369;29;20055;-76
2023/04/07 06:27:45;;;;;;;31.60;14.98;;;;;;;6.83;100.00;101526.69;4928681;29;20028;-77
2023/04/07 06:30:10;;;;;;;29.63;13.60;;;;;;;6.83;100.00;101520.63;4919285;29;20055;-76
2023/04/07 06:32:36;;;;;;;31.38;14.00;;;;;;;6.87;100.00;101530.22;4906110;29;20070;-76
2023/04/07 06:35:02;;;;;;;30.65;14.00;;;;;;;6.86;100.00;101534.53;4920197;29;20043;-77
2023/04/07 06:37:27;;;;;;;31.45;14.73;;;;;;;6.88;100.00;101537.16;4925054;29;20193;-76
2023/04/07 06:39:53;;;;;;;29.83;13.85;;;;;;;6.90;100.00;101538.94;4889719;29;20055;-77
2023/04/07 06:42:18;;;;;;;29.40;14.30;;;;;;;6.90;100.00;101532.88;4940209;29;20127;-77
2023/04/07 06:44:44;;;;;;;34.70;14.57;;;;;;;6.90;100.00;101532.88;4924608;29;20060;-76
2023/04/07 06:47:09;;;;;;;31.05;14.57;;;;;;;6.93;100.00;101541.59;4920411;29;20446;-77
2023/04/07 06:49:34;;;;;;;29.27;13.95;;;;;;;6.97;100.00;101542.53;4898556;29;20032;-77
2023/04/07 06:52:00;;;;;;;34.42;13.70;;;;;;;7.01;100.00;101548.66;4911730;29;20512;-77
2023/04/07 06:54:25;;;;;;;31.70;14.15;;;;;;;7.05;100.00;101548.75;4904274;29;20058;-76
2023/04/07 06:56:53;;;;;;;23.02;13.40;;;;;;;7.07;100.00;101553.97;4928888;29;20036;-76
2023/04/07 06:59:19;;;;;;;34.17;13.25;;;;;;;7.07;100.00;101551.38;4944138;29;20047;-76
2023/04/07 07:01:45;;;;;;;22.02;11.85;;;;;;;7.08;100.00;101551.38;4923002;29;20052;-76
2023/04/07 07:04:10;;;;;;;21.67;11.75;;;;;;;7.05;100.00;101556.56;4925603;29;20028;-76
2023/04/07 07:06:36;;;;;;;18.98;10.05;;;;;;;7.07;100.00;101559.19;4919907;29;20183;-76
2023/04/07 07:09:02;;;;;;;20.80;11.18;;;;;;;7.10;100.00;101561.81;4892688;29;20039;-72
2023/04/07 07:11:28;;;;;;;22.08;11.23;;;;;;;7.07;100.00;101557.44;4906965;29;20543;-72
2023/04/07 07:13:54;;;;;;;22.98;11.27;;;;;;;7.10;100.00;101565.28;4922187;29;20050;-72
2023/04/07 07:16:22;;;;;;;23.85;11.30;;;;;;;7.10;100.00;101556.63;4921367;29;20404;-72
2023/04/07 07:18:48;;;;;;;20.33;9.35;;;;;;;7.10;100.00;101554.88;4922077;29;20106;-72
2023/04/07 07:21:13;;;;;;;15.43;8.63;;;;;;;7.13;99.72;101564.47;4935553;29;20039;-72
2023/04/07 07:23:39;;;;;;;19.58;9.57;;;;;;;7.16;99.39;101563.66;4949093;28;20455;-72
2023/04/07 07:26:04;;;;;;;18.10;10.25;;;;;;;7.18;99.13;101567.13;4887180;29;20518;-72
2023/04/07 07:28:30;;;;;;;20.23;10.25;;;;;;;7.21;99.20;101568.06;4902639;29;20040;-76
2023/04/07 07:30:57;;;;;;;22.40;11.32;;;;;;;7.24;99.78;101557.69;4934281;29;20032;-76
2023/04/07 07:33:23;;;;;;;20.52;11.05;;;;;;;7.28;99.49;101567.28;4924433;29;20055;-76
2023/04/07 07:35:48;;;;;;;22.50;10.82;;;;;;;7.32;100.00;101573.41;4903511;29;20040;-76
2023/04/07 07:38:14;;;;;;;17.10;9.32;;;;;;;7.37;100.00;101571.75;4919138;29;20472;-76
2023/04/07 07:40:40;;;;;;;16.48;8.90;;;;;;;7.38;99.00;101575.22;4902912;29;20047;-77
2023/04/07 07:43:05;;;;;;;13.75;7.90;;;;;;;7.37;97.73;101589.09;4918691;29;20423;-76
2023/04/07 07:45:32;;;;;;;18.88;9.48;;;;;;;7.36;96.90;101584.78;4902626;29;20062;-75
2023/04/07 07:47:57;;;;;;;15.70;8.18;;;;;;;7.40;97.60;101586.56;4919190;29;20055;-72
2023/04/07 07:53:19;;;;;;;15.85;8.32;;;;;;;7.44;96.72;101581.41;5043305;23;20137;-70
2023/04/07 07:58:14;;;;;;;23.00;10.07;;;;;;;7.51;95.56;101587.56;5234552;23;20597;-70
2023/04/07 08:03:13;;;;;;;19.88;10.85;;;;;;;7.68;96.96;101593.00;5213918;23;20081;-70
2023/04/07 08:08:24;;;;;;;19.57;12.17;;;;;;;7.82;96.41;101608.81;5231960;23;20122;31
2023/04/07 08:10:50;;;;;;;22.92;11.77;;;;;;;7.86;95.79;101602.78;5181233;23;20142;-73
2023/04/07 08:18:25;;;;;;;14.20;7.03;;;;;;;7.95;93.27;101615.06;5303812;23;20055;-73
2023/04/07 08:28:52;;;;;;;11.13;6.25;;;;;;;8.01;92.09;101622.97;5505051;23;20047;-75
2023/04/07 09:27:16;;;;;;;10.90;5.07;;;;;;;8.59;88.32;101672.34;1034213;26;21192;-71
2023/04/07 09:29:42;;;;;;;;;;;;;;;8.62;88.09;101656.72;4918754;29;20055;-71
2023/04/07 09:32:08;;;;;;;16.33;5.35;;;;;;;8.59;86.79;101661.00;4929139;29;19966;-71
2023/04/07 09:34:36;;;;;;;9.50;5.18;;;;;;;8.65;88.05;101661.97;4921141;29;20046;-71
2023/04/07 09:37:03;;;;;;;13.80;5.50;;;;;;;8.69;87.09;101661.97;4936630;29;20032;-71
2023/04/07 09:39:29;;;;;;;10.38;5.50;;;;;;;8.72;87.37;101659.38;4920585;28;20047;-71
2023/04/07 09:41:55;;;;;;;11.48;4.85;;;;;;;8.69;86.84;101659.38;4921023;29;20561;-71
2023/04/07 09:44:21;;;;;;;12.35;5.18;;;;;;;8.71;87.60;101655.06;4936696;29;20047;-72
2023/04/07 09:46:52;;;;;;;8.90;4.85;;;;;;;8.69;87.21;101656.75;4957301;29;20035;-71
2023/04/07 09:49:19;;;;;;;10.55;4.95;;;;;;;8.61;86.05;101657.56;4939984;29;20066;-71
2023/04/07 09:52:06;;;;;;;19.27;6.15;;;;;;;8.60;86.46;101654.94;4890192;29;20042;-71
2023/04/07 09:54:36;;;;;;;10.98;4.45;;;;;;;8.60;87.36;101658.41;4921098;28;20044;-72
2023/04/07 09:57:07;;;;;;;7.95;3.97;;;;;;;8.57;86.94;101667.97;4905007;29;20412;-71
2023/04/07 09:59:35;;;;;;;9.13;4.10;;;;;;;8.55;85.40;101672.28;4921061;29;20400;-72
2023/04/07 10:02:00;;;;;;;13.43;4.68;;;;;;;8.54;85.87;101678.41;4926641;29;20032;-72
2023/04/07 10:04:28;;;;;;;13.57;4.90;;;;;;;8.48;86.57;101671.38;4939512;29;20195;-72
2023/04/07 10:06:54;;;;;;;11.30;4.68;;;;;;;8.45;85.98;101671.34;4939957;29;20027;-71
2023/04/07 10:09:22;;;;;;;12.70;5.82;;;;;;;8.45;86.38;101674.81;4940314;29;20035;-71
2023/04/07 10:11:50;;;;;;;12.60;5.25;;;;;;;8.50;87.35;101677.47;4939470;29;20034;-71
2023/04/07 10:14:17;;;;;;;11.05;4.60;;;;;;;8.49;86.65;101679.22;4939019;29;20381;-71
2023/04/07 10:16:45;;;;;;;15.18;5.22;;;;;;;8.55;86.89;101677.50;4938496;29;20042;-71
2023/04/07 10:19:11;;;;;;;12.40;4.38;;;;;;;8.59;87.13;101680.19;4939653;29;20085;-72
2023/04/07 10:21:43;;;;;;;13.82;4.93;;;;;;;8.63;86.04;101681.97;4939211;28;20487;-71
2023/04/07 10:24:38;;;;;;;10.68;3.80;;;;;;;8.63;85.59;101681.09;4939391;29;20046;-71
2023/04/07 10:27:08;;;;;;;9.20;4.03;;;;;;;8.49;84.84;101680.94;4939162;28;20131;-71
2023/04/07 10:29:42;;;;;;;10.45;4.03;;;;;;;8.45;86.06;101689.63;4939642;29;20058;-71
2023/04/07 10:32:08;;;;;;;11.80;4.63;;;;;;;8.40;86.06;101686.03;4937859;29;20400;-72
2023/04/07 10:34:49;;;;;;;11.18;4.05;;;;;;;8.41;86.24;101695.66;4955509;29;20045;-72
2023/04/07 10:37:17;;;;;;;10.45;4.72;;;;;;;8.41;86.71;101695.66;4971334;28;20126;-71
2023/04/07 10:39:43;;;;;;;8.20;3.53;;;;;;;8.41;85.98;101700.88;4955779;28;20376;-72
2023/04/07 10:42:36;;;;;;;11.10;3.80;;;;;;;8.44;85.75;101704.41;4952779;28;20031;-72
2023/04/07 10:45:03;;;;;;;9.00;3.85;;;;;;;8.47;85.70;101701.81;4955969;28;20050;-72
2023/04/07 10:47:29;;;;;;;12.20;3.92;;;;;;;8.52;85.42;101701.91;4937533;29;20111;-71
2023/04/07 10:50:23;;;;;;;9.35;4.10;;;;;;;8.66;86.23;101702.91;4939031;29;20122;-71
2023/04/07 10:53:03;;;;;;;13.45;4.25;;;;;;;8.69;85.94;101691.59;4938937;29;20039;-72
2023/04/07 10:55:35;;;;;;;10.73;3.97;;;;;;;8.79;86.07;101708.25;4919873;29;20042;-71
2023/04/07 10:58:22;;;;;;;9.70;3.70;;;;;;;8.80;85.15;101703.03;4933537;29;20491;-72
2023/04/07 11:01:03;;;;;;;8.45;3.30;;;;;;;8.80;85.35;101702.16;4966951;28;20054;-72
2023/04/07 11:03:29;;;;;;;;;;;;;;;8.84;85.71;101709.16;4939436;29;20054;-71
2023/04/07 11:06:08;;;;;;;10.73;4.03;;;;;;;8.81;85.42;101707.41;4923118;29;20290;-71
2023/04/07 11:08:38;;;;;;;9.95;3.95;;;;;;;8.81;85.54;101703.91;4938137;29;20126;-72
2023/04/07 11:11:07;;;;;;;7.55;3.78;;;;;;;8.85;85.84;101716.16;4922684;29;20043;-72
2023/04/07 11:13:47;;;;;;;10.30;4.15;;;;;;;8.78;83.82;101717.81;4923150;29;20452;-72
2023/04/07 11:16:14;;;;;;;11.27;4.20;;;;;;;8.72;83.57;101715.16;4922468;29;20118;-72
2023/04/07 11:18:40;;;;;;;16.13;5.65;;;;;;;8.69;84.12;101722.09;4921969;29;20051;-72
2023/04/07 11:21:07;;;;;;;12.13;4.50;;;;;;;8.62;83.96;101718.53;4938328;29;20506;-71
2023/04/07 11:23:44;;;;;;;15.85;5.35;;;;;;;8.59;84.68;101719.38;4938456;29;20039;-72
2023/04/07 11:26:13;;;;;;;15.77;5.28;;;;;;;8.58;86.16;101714.16;4938257;29;20078;-72
2023/04/07 11:28:46;;;;;;;13.80;4.72;;;;;;;8.61;86.14;101722.00;4937404;29;20492;-72
2023/04/07 11:31:20;;;;;;;13.13;5.00;;;;;;;8.49;85.06;101717.50;4968658;28;20039;-72
2023/04/07 11:33:53;;;;;;;15.23;5.47;;;;;;;8.48;85.36;101721.88;4938286;29;20047;-72
2023/04/07 11:36:29;;;;;;;10.68;4.72;;;;;;;8.45;86.03;101716.63;4938280;29;20122;-72
2023/04/07 11:38:56;;;;;;;14.00;5.05;;;;;;;8.48;85.48;101723.63;4937385;29;20069;-72
2023/04/07 11:41:22;;;;;;;10.98;5.47;;;;;;;8.55;86.42;101724.53;4937831;29;20050;-71
2023/04/07 11:43:49;;;;;;;11.88;4.80;;;;;;;8.61;86.02;101727.25;4922052;29;20507;-71
2023/04/07 11:46:17;;;;;;;14.77;5.57;;;;;;;8.68;85.14;101736.91;4922007;29;20035;-72
2023/04/07 11:48:44;;;;;;;13.55;5.18;;;;;;;8.74;85.66;101728.25;4938092;29;20491;-72
2023/04/07 11:51:22;;;;;;;10.00;4.70;;;;;;;8.77;84.81;101728.28;4937353;29;20039;-71
2023/04/07 11:53:54;;;;;;;9.80;4.60;;;;;;;8.84;84.14;101724.84;4915347;29;20043;-72
2023/04/07 11:56:21;;;;;;;14.07;4.32;;;;;;;8.91;84.59;101725.78;4934381;29;20031;-72
2023/04/07 11:58:47;;;;;;;16.00;4.53;;;;;;;8.95;83.41;101735.41;4934803;29;20038;-71
2023/04/07 12:01:13;;;;;;;14.77;4.43;;;;;;;8.97;83.06;101739.78;4934015;29;20515;-72
2023/04/07 12:03:57;;;;;;;14.70;4.47;;;;;;;9.02;83.71;101745.03;4921624;29;20059;-72
2023/04/07 12:06:33;;;;;;;14.52;4.25;;;;;;;9.10;83.37;101745.13;4937570;29;20065;-71
2023/04/07 12:09:03;;;;;;;14.75;4.72;;;;;;;9.16;84.21;101747.78;4937247;29;20038;-72
2023/04/07 12:11:29;;;;;;;14.68;4.60;;;;;;;9.20;82.53;101749.56;4921643;29;20047;-71
2023/04/07 12:13:55;;;;;;;14.48;4.13;;;;;;;9.28;82.24;101744.41;4921772;29;20039;-71
2023/04/07 12:16:21;;;;;;;10.55;3.92;;;;;;;9.32;81.89;101752.31;4938063;29;20172;-71
2023/04/07 12:18:48;;;;;;;14.73;4.38;;;;;;;9.37;82.32;101744.47;4922134;29;20053;-71
2023/04/07 12:21:13;;;;;;;9.20;4.13;;;;;;;9.39;81.16;101754.97;4921496;28;20039;-72
2023/04/07 12:23:39;;;;;;;9.10;4.15;;;;;;;9.28;79.91;101753.13;4922136;29;20031;-71
2023/04/07 12:26:05;;;;;;;17.55;4.13;;;;;;;9.19;79.84;101756.56;4921564;29;20510;-71
2023/04/07 12:28:30;;;;;;;8.10;3.53;;;;;;;9.16;80.89;101748.66;4921287;29;20039;-72
2023/04/07 12:30:56;;;;;;;11.38;4.15;;;;;;;9.17;81.54;101766.09;4937007;29;20046;-72
2023/04/07 12:33:21;;;;;;;13.13;4.63;;;;;;;9.19;82.17;101763.50;4905621;29;20463;-71
2023/04/07 12:35:50;;;;;;;10.15;3.80;;;;;;;9.19;80.53;101767.00;4901200;29;20058;-71
2023/04/07 12:38:16;;;;;;;13.20;4.30;;;;;;;9.14;81.56;101765.22;4933482;29;20040;-72